createdAt,value
2019-05-01T00:01:50.312Z,8.40
2019-05-01T00:04:24.322Z,6.72
2019-05-01T00:07:00.037Z,4.97
2019-05-01T00:09:35.682Z,5.20
2019-05-01T00:12:09.175Z,5.30
2019-05-01T00:14:42.229Z,4.70
2019-05-01T00:17:14.959Z,5.60
2019-05-01T00:19:48.428Z,5.45
2019-05-01T00:22:21.593Z,4.62
2019-05-01T00:24:53.279Z,5.35
2019-05-01T00:27:26.525Z,5.28
2019-05-01T00:29:58.660Z,6.17
2019-05-01T00:32:33.523Z,5.67
2019-05-01T00:35:08.156Z,5.83
2019-05-01T00:37:43.998Z,5.67
2019-05-01T00:40:19.171Z,5.25
2019-05-01T00:42:52.000Z,5.40
2019-05-01T00:45:24.283Z,5.15
2019-05-01T00:47:57.254Z,4.87
2019-05-01T00:50:29.926Z,5.35
2019-05-01T00:53:02.633Z,5.17
2019-05-01T00:55:36.562Z,4.65
2019-05-01T00:58:10.784Z,5.45
2019-05-01T01:00:47.755Z,4.75
2019-05-01T01:03:20.830Z,5.03
2019-05-01T01:05:55.355Z,5.42
2019-05-01T01:08:28.120Z,5.75
2019-05-01T01:11:00.416Z,4.62
2019-05-01T01:13:33.318Z,5.05
2019-05-01T01:16:06.260Z,5.08
2019-05-01T01:18:39.092Z,5.97
2019-05-01T01:21:16.866Z,5.25
2019-05-01T01:23:52.578Z,5.60
2019-05-01T01:26:24.917Z,5.25
2019-05-01T01:28:57.594Z,5.17
2019-05-01T01:31:31.449Z,5.60
2019-05-01T01:34:04.576Z,4.75
2019-05-01T01:36:37.819Z,5.40
2019-05-01T01:39:12.097Z,5.30
2019-05-01T01:41:44.897Z,5.95
2019-05-01T01:44:19.593Z,5.15
2019-05-01T01:46:56.537Z,5.85
2019-05-01T01:49:31.695Z,5.30
2019-05-01T01:52:04.453Z,5.12
2019-05-01T01:54:38.407Z,5.45
2019-05-01T01:57:11.655Z,5.28
2019-05-01T01:59:44.946Z,5.15
2019-05-01T02:02:18.953Z,5.40
2019-05-01T02:04:54.200Z,4.80
2019-05-01T02:07:27.153Z,5.22
2019-05-01T02:10:00.448Z,5.10
2019-05-01T02:12:33.535Z,5.22
2019-05-01T02:15:07.780Z,5.95
2019-05-01T02:17:40.494Z,5.10
2019-05-01T02:20:13.753Z,5.00
2019-05-01T02:22:47.012Z,5.17
2019-05-01T02:25:21.758Z,5.85
2019-05-01T02:27:56.889Z,6.12
2019-05-01T02:30:31.339Z,6.42
2019-05-01T02:33:04.308Z,5.70
2019-05-01T02:35:40.545Z,5.87
2019-05-01T02:38:14.945Z,5.55
2019-05-01T02:40:49.748Z,7.12
2019-05-01T02:43:27.758Z,6.35
2019-05-01T02:46:03.508Z,6.00
2019-05-01T06:10:58.650Z,6.90
2019-05-01T06:13:34.091Z,5.60
2019-05-01T06:16:12.216Z,5.40
2019-05-01T06:18:46.372Z,5.55
2019-05-01T06:21:21.364Z,5.53
2019-05-01T06:24:06.071Z,5.62
2019-05-01T06:26:39.455Z,5.25
2019-05-01T06:29:09.051Z,4.95
2019-05-01T06:31:42.633Z,5.55
2019-05-01T06:34:16.293Z,4.78
2019-05-01T06:36:51.419Z,4.67
2019-05-01T06:39:24.981Z,5.15
2019-05-01T06:41:57.121Z,4.78
2019-05-01T06:44:38.605Z,4.87
2019-05-01T06:47:08.643Z,4.67
2019-05-01T06:49:43.223Z,4.50
2019-05-01T06:52:17.363Z,4.85
2019-05-01T06:54:52.139Z,4.70
2019-05-01T06:57:26.359Z,5.20
2019-05-01T07:00:03.250Z,5.72
2019-05-01T07:02:36.968Z,5.47
2019-05-01T07:05:14.605Z,5.22
2019-05-01T07:07:48.002Z,6.12
2019-05-01T07:10:29.863Z,6.10
2019-05-01T07:12:53.236Z,6.28
2019-05-01T07:15:26.791Z,5.67
2019-05-01T07:18:01.289Z,5.80
2019-05-01T07:20:35.954Z,5.70
2019-05-01T07:23:12.690Z,6.47
2019-05-01T07:25:44.022Z,6.28
2019-05-01T07:28:18.497Z,6.37
2019-05-01T07:30:54.776Z,6.35
2019-05-01T07:33:28.257Z,6.30
2019-05-01T07:36:00.335Z,6.00
2019-05-01T07:38:38.301Z,5.50
2019-05-01T07:41:07.408Z,6.67
2019-05-01T07:43:40.368Z,6.28
2019-05-01T07:46:18.366Z,6.37
2019-05-01T07:48:50.041Z,6.75
2019-05-01T07:51:22.626Z,6.05
2019-05-01T07:53:59.091Z,6.60
2019-05-01T07:56:32.206Z,6.87
2019-05-01T07:59:05.002Z,6.85
2019-05-01T08:01:43.970Z,8.25
2019-05-01T08:04:18.404Z,6.70
2019-05-01T08:06:56.564Z,6.47
2019-05-01T08:09:26.717Z,6.70
2019-05-01T08:11:58.375Z,5.65
2019-05-01T08:14:31.292Z,6.20
2019-05-01T08:17:04.994Z,5.90
2019-05-01T08:19:40.588Z,5.85
2019-05-01T08:22:15.490Z,6.30
2019-05-01T08:24:47.505Z,6.62
2019-05-01T08:27:21.480Z,6.17
2019-05-01T08:29:55.840Z,6.50
2019-05-01T08:32:33.730Z,6.70
2019-05-01T08:35:05.696Z,6.20
2019-05-01T08:37:39.935Z,6.78
2019-05-01T08:40:16.002Z,6.50
2019-05-01T08:42:47.945Z,5.97
2019-05-01T08:45:20.147Z,6.28
2019-05-01T08:48:00.352Z,5.60
2019-05-01T08:50:30.890Z,5.80
2019-05-01T08:53:06.325Z,5.10
2019-05-01T08:55:39.961Z,5.12
2019-05-01T08:58:13.992Z,5.65
2019-05-01T09:00:49.200Z,5.25
2019-05-01T09:03:21.728Z,5.20
2019-05-01T09:05:57.308Z,5.17
2019-05-01T09:08:32.168Z,5.28
2019-05-01T09:11:04.728Z,4.50
2019-05-01T09:13:38.027Z,5.50
2019-05-01T09:16:10.779Z,5.50
2019-05-01T09:18:46.641Z,5.80
2019-05-01T09:21:22.761Z,5.78
2019-05-01T09:23:55.858Z,5.03
2019-05-01T09:26:29.312Z,4.95
2019-05-01T09:29:03.755Z,4.97
2019-05-01T09:31:37.168Z,4.72
2019-05-01T09:34:14.079Z,5.10
2019-05-01T09:36:45.727Z,5.03
2019-05-01T09:39:19.285Z,5.25
2019-05-01T09:41:51.939Z,4.50
2019-05-01T09:44:27.150Z,4.40
2019-05-01T09:47:00.176Z,4.25
2019-05-01T11:27:13.832Z,4.80
2019-05-01T11:29:46.740Z,4.58
2019-05-01T11:32:20.741Z,4.67
2019-05-01T11:34:56.298Z,5.03
2019-05-01T11:37:32.491Z,4.72
2019-05-01T11:40:07.231Z,5.00
2019-05-01T11:42:45.319Z,4.60
2019-05-01T11:45:22.889Z,4.75
2019-05-01T11:47:55.130Z,4.47
2019-05-01T11:50:28.437Z,4.78
2019-05-01T11:53:01.431Z,4.67
2019-05-01T11:55:34.646Z,5.08
2019-05-01T11:58:07.170Z,5.22
2019-05-01T12:00:40.706Z,4.87
2019-05-01T12:03:12.666Z,5.37
2019-05-01T12:05:48.126Z,5.72
2019-05-01T12:08:20.292Z,4.85
2019-05-01T12:10:53.338Z,4.87
2019-05-01T12:13:26.297Z,5.25
2019-05-01T12:16:01.102Z,5.92
2019-05-01T12:18:33.688Z,5.60
2019-05-01T12:21:09.031Z,5.80
2019-05-01T12:23:40.686Z,5.28
2019-05-01T12:26:16.301Z,6.30
2019-05-01T12:28:48.685Z,5.90
2019-05-01T12:31:20.842Z,5.60
2019-05-01T12:33:54.322Z,4.95
2019-05-01T12:36:36.014Z,5.45
2019-05-01T12:39:03.482Z,5.67
2019-05-01T12:41:38.460Z,5.72
2019-05-01T12:44:10.786Z,5.58
2019-05-01T12:46:46.210Z,6.08
2019-05-01T12:49:18.337Z,5.25
2019-05-01T12:51:52.043Z,5.35
2019-05-01T12:54:27.065Z,5.55
2019-05-01T12:57:00.888Z,5.72
2019-05-01T12:59:32.995Z,5.47
2019-05-01T13:02:05.825Z,5.10
2019-05-01T13:04:38.198Z,5.47
2019-05-01T13:07:12.224Z,5.40
2019-05-01T13:09:44.620Z,5.47
2019-05-01T13:12:17.130Z,5.72
2019-05-01T13:14:48.787Z,6.58
2019-05-01T13:17:22.019Z,6.33
2019-05-01T13:19:54.459Z,7.28
2019-05-01T13:22:27.502Z,6.37
2019-05-01T13:25:00.616Z,5.87
2019-05-01T13:27:33.931Z,5.90
2019-05-01T13:30:08.591Z,5.65
2019-05-01T13:32:41.847Z,5.00
2019-05-01T13:35:14.851Z,4.72
2019-05-01T13:37:47.670Z,4.40
2019-05-01T13:40:21.521Z,4.25
2019-05-01T13:42:53.720Z,4.05
2019-05-01T13:45:27.064Z,4.58
2019-05-01T13:47:59.083Z,4.22
2019-05-01T13:50:31.962Z,4.50
2019-05-01T13:53:05.242Z,4.50
2019-05-01T13:55:37.239Z,4.40
2019-05-01T13:58:09.762Z,4.33
2019-05-01T14:00:42.442Z,3.62
2019-05-01T14:03:14.749Z,3.87
2019-05-01T14:05:46.395Z,4.10
2019-05-01T14:08:22.444Z,4.20
2019-05-01T14:10:55.699Z,3.83
2019-05-01T14:13:27.536Z,4.35
2019-05-01T14:16:00.930Z,3.98
2019-05-01T14:18:34.758Z,3.77
2019-05-01T14:21:08.975Z,4.70
2019-05-01T14:23:42.920Z,4.08
2019-05-01T14:26:16.610Z,3.98
2019-05-01T14:28:48.713Z,4.55
2019-05-01T14:31:20.575Z,3.90
2019-05-01T14:33:53.533Z,3.95
2019-05-01T14:36:27.775Z,4.40
2019-05-01T14:39:00.633Z,4.40
2019-05-01T14:41:34.077Z,4.22
2019-05-01T14:44:06.820Z,4.62
2019-05-01T14:46:39.637Z,4.97
2019-05-01T14:49:18.136Z,4.35
2019-05-01T14:51:52.070Z,3.55
2019-05-01T14:54:24.973Z,3.80
2019-05-01T14:56:58.127Z,3.40
2019-05-01T14:59:30.316Z,3.60
2019-05-01T15:02:02.514Z,3.42
2019-05-01T15:04:34.754Z,3.70
2019-05-01T15:07:07.950Z,3.52
2019-05-01T15:09:42.566Z,3.37
2019-05-01T15:12:15.288Z,3.45
2019-05-01T15:14:50.429Z,2.95
2019-05-01T15:17:25.167Z,3.37
2019-05-01T15:20:05.713Z,3.60
2019-05-01T15:22:38.663Z,3.98
2019-05-01T15:25:12.383Z,3.50
2019-05-01T15:27:46.472Z,3.12
2019-05-01T15:30:21.551Z,3.30
2019-05-01T15:32:54.285Z,3.12
2019-05-01T15:35:28.028Z,3.60
2019-05-01T15:38:02.721Z,3.58
2019-05-01T15:40:36.983Z,3.50
2019-05-01T15:43:10.976Z,3.20
2019-05-01T15:45:43.660Z,3.10
2019-05-01T15:48:24.147Z,3.95
2019-05-01T15:51:00.897Z,4.00
2019-05-01T15:53:37.298Z,3.60
2019-05-01T15:56:09.749Z,3.60
2019-05-01T15:58:42.316Z,3.70
2019-05-01T16:01:15.289Z,3.42
2019-05-01T16:03:55.093Z,3.40
2019-05-01T16:06:29.328Z,3.58
2019-05-01T16:09:03.696Z,3.60
2019-05-01T16:11:38.256Z,3.75
2019-05-01T16:14:11.297Z,3.25
2019-05-01T16:16:44.435Z,3.60
2019-05-01T16:19:17.647Z,3.70
2019-05-01T16:21:50.436Z,3.87
2019-05-01T16:24:23.670Z,3.77
2019-05-01T16:26:57.869Z,3.77
2019-05-01T16:29:29.636Z,3.85
2019-05-01T16:32:03.641Z,3.27
2019-05-01T16:34:38.025Z,3.30
2019-05-01T16:37:10.679Z,3.30
2019-05-01T16:39:45.834Z,3.42
2019-05-01T16:42:19.437Z,3.72
2019-05-01T16:44:53.216Z,3.47
2019-05-01T16:47:37.165Z,3.58
2019-05-01T16:50:11.109Z,3.70
2019-05-01T16:52:46.082Z,3.30
2019-05-01T16:55:18.597Z,3.80
2019-05-01T16:57:55.291Z,3.92
2019-05-01T17:00:31.242Z,3.47
2019-05-01T17:03:05.864Z,3.87
2019-05-01T17:05:45.609Z,3.87
2019-05-01T17:08:20.816Z,3.62
2019-05-01T17:10:54.652Z,4.20
2019-05-01T17:13:27.947Z,3.77
2019-05-01T17:16:01.537Z,3.80
2019-05-01T17:18:34.497Z,3.92
2019-05-01T17:21:07.371Z,3.30
2019-05-01T17:23:40.313Z,4.10
2019-05-01T17:26:12.886Z,3.58
2019-05-01T17:28:46.104Z,3.55
2019-05-01T17:31:19.141Z,3.92
2019-05-01T17:33:55.641Z,3.40
2019-05-01T17:36:26.562Z,4.03
2019-05-01T17:38:59.306Z,3.62
2019-05-01T17:41:33.058Z,4.30
2019-05-01T17:44:06.052Z,3.47
2019-05-01T17:46:41.805Z,4.12
2019-05-01T17:49:16.035Z,3.87
2019-05-01T17:51:48.560Z,3.85
2019-05-01T17:54:20.746Z,3.70
2019-05-01T17:56:55.584Z,3.50
2019-05-01T17:59:27.650Z,3.75
2019-05-01T18:02:05.162Z,4.50
2019-05-01T18:04:39.295Z,4.10
2019-05-01T18:07:11.732Z,4.08
2019-05-01T18:09:44.808Z,3.77
2019-05-01T18:12:18.251Z,3.77
2019-05-01T18:14:50.625Z,4.45
2019-05-01T18:17:23.761Z,4.10
2019-05-01T18:19:56.515Z,3.98
2019-05-01T18:22:32.240Z,3.83
2019-05-01T18:25:06.474Z,3.70
2019-05-01T18:27:41.004Z,3.80
2019-05-01T18:30:20.390Z,3.83
2019-05-01T18:32:52.555Z,3.75
2019-05-01T18:35:23.671Z,4.10
2019-05-01T18:37:59.308Z,4.37
2019-05-01T18:40:33.991Z,3.47
2019-05-01T18:43:08.041Z,4.30
2019-05-01T18:45:44.507Z,3.62
2019-05-01T18:48:21.006Z,3.70
2019-05-01T18:50:56.471Z,3.92
2019-05-01T18:53:30.674Z,3.95
2019-05-01T18:56:05.450Z,4.17
2019-05-01T18:58:37.331Z,3.95
2019-05-01T19:01:10.885Z,3.67
2019-05-01T19:03:46.957Z,3.33
2019-05-01T19:06:19.708Z,3.72
2019-05-01T19:08:52.253Z,3.72
2019-05-01T19:11:25.413Z,3.50
2019-05-01T19:14:00.686Z,3.50
2019-05-01T19:16:35.135Z,3.70
2019-05-01T19:19:07.616Z,3.60
2019-05-01T19:21:41.884Z,3.05
2019-05-01T19:24:15.782Z,3.77
2019-05-01T19:26:48.839Z,3.70
2019-05-01T19:29:21.836Z,3.50
2019-05-01T19:31:54.638Z,3.70
2019-05-01T19:34:27.666Z,3.27
2019-05-01T19:37:01.891Z,3.70
2019-05-01T19:39:43.481Z,3.87
2019-05-01T19:42:16.115Z,3.55
2019-05-01T19:44:50.902Z,3.72
2019-05-01T19:47:23.680Z,3.70
2019-05-01T19:50:06.589Z,4.00
2019-05-01T19:52:37.482Z,4.17
2019-05-01T19:55:07.821Z,3.77
2019-05-01T19:57:41.211Z,3.35
2019-05-01T20:00:16.214Z,4.17
2019-05-01T20:02:49.229Z,3.65
2019-05-01T20:05:27.097Z,3.15
2019-05-01T20:08:00.959Z,3.72
2019-05-01T20:10:33.951Z,3.30
2019-05-01T20:13:12.000Z,3.20
2019-05-01T20:15:42.087Z,3.58
2019-05-01T20:18:15.097Z,4.22
2019-05-01T20:20:49.198Z,3.40
2019-05-01T20:23:26.199Z,3.67
2019-05-01T20:25:57.312Z,3.35
2019-05-01T20:28:30.389Z,3.37
2019-05-01T20:31:03.381Z,3.58
2019-05-01T20:33:39.053Z,3.37
2019-05-01T20:36:10.730Z,3.65
2019-05-01T20:38:44.121Z,3.85
2019-05-01T20:41:19.471Z,3.27
2019-05-01T20:43:51.899Z,3.10
2019-05-01T20:46:26.206Z,4.03
2019-05-01T20:49:01.381Z,3.72
2019-05-01T20:51:34.380Z,3.70
2019-05-01T20:54:07.437Z,3.87
2019-05-01T20:56:39.930Z,3.98
2019-05-01T20:59:12.649Z,3.62
2019-05-01T21:01:46.474Z,3.90
2019-05-01T21:04:20.554Z,3.50
2019-05-01T21:06:54.098Z,3.92
2019-05-01T21:09:27.659Z,4.37
2019-05-01T21:12:05.365Z,4.20
2019-05-01T21:14:36.480Z,4.35
2019-05-01T21:17:13.568Z,3.33
2019-05-01T21:19:44.238Z,3.87
2019-05-01T21:22:16.938Z,4.33
2019-05-01T21:24:50.740Z,4.20
2019-05-01T21:27:24.344Z,4.30
2019-05-01T21:29:56.801Z,3.77
2019-05-01T21:32:29.441Z,4.05
2019-05-01T21:35:04.907Z,4.05
2019-05-01T21:37:38.550Z,4.20
2019-05-01T21:40:12.943Z,4.00
2019-05-01T21:42:47.377Z,3.83
2019-05-01T21:45:19.924Z,3.72
2019-05-01T21:47:52.971Z,3.60
2019-05-01T21:50:26.556Z,4.10
2019-05-01T21:53:03.180Z,3.90
2019-05-01T21:55:34.768Z,3.90
2019-05-01T21:58:08.070Z,3.80
2019-05-01T22:00:42.252Z,4.50
2019-05-01T22:03:16.742Z,4.58
2019-05-01T22:05:49.724Z,4.80
2019-05-01T22:08:24.282Z,5.60
2019-05-01T22:10:57.709Z,5.00
2019-05-01T22:13:30.817Z,4.83
2019-05-01T22:16:05.092Z,5.08
2019-05-01T22:18:42.282Z,4.33
2019-05-01T22:21:15.889Z,4.45
2019-05-01T22:23:50.674Z,3.90
2019-05-01T22:26:22.734Z,4.37
2019-05-01T22:28:59.876Z,4.83
2019-05-01T22:31:40.854Z,4.15
2019-05-01T22:34:15.380Z,4.97
2019-05-01T22:36:48.029Z,4.58
